createdAt,value
2019-03-04T00:01:47.635Z,95186.54
2019-03-04T00:04:17.230Z,95187.97
2019-03-04T00:06:46.917Z,95187.68
2019-03-04T00:09:16.550Z,95180.58
2019-03-04T00:11:46.238Z,95176.89
2019-03-04T00:14:15.875Z,95174.42
2019-03-04T00:16:45.561Z,95167.22
2019-03-04T00:19:15.262Z,95171.16
2019-03-04T00:21:44.981Z,95171.45
2019-03-04T00:24:14.693Z,95166.41
2019-03-04T00:26:44.313Z,95172.49
2019-03-04T00:29:14.010Z,95166.53
2019-03-04T00:31:43.641Z,95156.05
2019-03-04T00:34:13.335Z,95162.11
2019-03-04T00:36:42.980Z,95157.28
2019-03-04T00:39:12.959Z,95168.16
2019-03-04T00:41:42.590Z,95168.78
2019-03-04T00:44:12.274Z,95166.63
2019-03-04T00:46:41.910Z,95165.72
2019-03-04T00:49:11.636Z,95167.25
2019-03-04T00:51:41.296Z,95170.44
2019-03-04T00:54:10.936Z,95170.54
2019-03-04T00:56:40.617Z,95167.05
2019-03-04T00:59:10.257Z,95168.81
2019-03-04T01:01:39.938Z,95169.82
2019-03-04T01:04:09.578Z,95164.58
2019-03-04T01:06:39.258Z,95158.12
2019-03-04T01:09:12.689Z,95157.60
2019-03-04T01:11:42.369Z,95156.59
2019-03-04T01:14:12.106Z,95157.21
2019-03-04T01:16:41.793Z,95147.54
2019-03-04T01:19:11.405Z,95148.58
2019-03-04T01:21:41.107Z,95140.25
2019-03-04T01:24:10.736Z,95138.91
2019-03-04T01:26:40.433Z,95140.45
2019-03-04T01:29:10.133Z,95132.14
2019-03-04T01:31:39.777Z,95131.33
2019-03-04T01:34:09.459Z,95125.56
2019-03-04T01:36:39.089Z,95133.67
2019-03-04T01:39:08.678Z,95131.94
2019-03-04T01:41:38.315Z,95135.03
2019-03-04T01:44:07.999Z,95130.31
2019-03-04T01:46:37.706Z,95121.27
2019-03-04T01:49:07.347Z,95129.27
2019-03-04T01:51:37.020Z,95127.84
2019-03-04T01:54:06.660Z,95131.32
2019-03-04T01:56:36.337Z,95126.83
2019-03-04T01:59:06.009Z,95129.69
2019-03-04T02:01:35.662Z,95128.36
2019-03-04T02:04:05.394Z,95129.20
2019-03-04T02:06:35.085Z,95127.44
2019-03-04T02:09:05.525Z,95130.73
2019-03-04T02:11:35.217Z,95127.55
2019-03-04T02:14:04.905Z,95134.54
2019-03-04T02:16:34.640Z,95131.67
2019-03-04T02:19:04.281Z,95134.94
2019-03-04T02:21:33.961Z,95134.12
2019-03-04T02:24:34.816Z,95131.73
2019-03-04T02:27:04.522Z,95138.14
2019-03-04T02:29:34.148Z,95125.22
2019-03-04T02:32:03.881Z,95127.95
2019-03-04T02:34:33.466Z,95120.27
2019-03-04T02:37:03.179Z,95118.94
2019-03-04T02:39:32.861Z,95122.32
2019-03-04T02:42:02.588Z,95129.00
2019-03-04T02:44:32.289Z,95124.59
2019-03-04T02:47:01.921Z,95134.05
2019-03-04T02:49:31.610Z,95137.50
2019-03-04T02:52:01.249Z,95135.97
2019-03-04T02:54:30.942Z,95133.00
2019-03-04T02:57:00.556Z,95113.50
2019-03-04T02:59:30.258Z,95115.77
2019-03-04T03:01:59.955Z,95117.30
2019-03-04T03:04:29.705Z,95107.25
2019-03-04T03:06:59.414Z,95112.36
2019-03-04T03:09:29.244Z,95112.69
2019-03-04T03:11:58.918Z,95112.69
2019-03-04T03:14:28.541Z,95112.06
2019-03-04T03:17:01.371Z,95116.36
2019-03-04T03:19:31.024Z,95110.73
2019-03-04T03:22:00.726Z,95106.44
2019-03-04T03:24:30.362Z,95107.34
2019-03-04T03:27:00.053Z,95110.44
2019-03-04T03:29:29.669Z,95112.68
2019-03-04T03:31:59.353Z,95114.73
2019-03-04T03:34:29.065Z,95112.26
2019-03-04T03:36:58.701Z,95112.19
2019-03-04T03:39:28.380Z,95114.93
2019-03-04T03:41:58.056Z,95107.23
2019-03-04T03:44:27.713Z,95103.95
2019-03-04T03:46:57.334Z,95112.78
2019-03-04T03:49:27.034Z,95107.15
2019-03-04T03:51:56.731Z,95100.67
2019-03-04T03:54:26.416Z,95102.52
2019-03-04T03:56:56.161Z,95094.33
2019-03-04T03:59:25.831Z,95095.55
2019-03-04T04:01:55.489Z,95093.51
2019-03-04T04:04:25.107Z,95090.94
2019-03-04T04:06:54.801Z,95092.37
2019-03-04T04:09:24.431Z,95097.19
2019-03-04T04:11:54.120Z,95096.98
2019-03-04T04:14:23.827Z,95095.45
2019-03-04T04:16:53.493Z,95092.39
2019-03-04T04:19:23.144Z,95096.69
2019-03-04T04:21:52.815Z,95091.97
2019-03-04T04:24:22.462Z,95098.64
2019-03-04T04:26:52.102Z,95089.83
2019-03-04T04:29:21.775Z,95091.23
2019-03-04T04:31:51.497Z,95081.30
2019-03-04T04:34:21.215Z,95084.78
2019-03-04T04:36:50.960Z,95084.16
2019-03-04T04:39:20.551Z,95084.97
2019-03-04T04:41:50.234Z,95082.30
2019-03-04T04:44:19.874Z,95084.68
2019-03-04T04:47:00.310Z,95087.05
2019-03-04T04:49:33.968Z,95082.02
2019-03-04T04:52:03.646Z,95083.05
2019-03-04T04:54:33.337Z,95078.01
2019-03-04T04:57:03.036Z,95080.36
2019-03-04T04:59:32.762Z,95082.21
2019-03-04T05:02:02.465Z,95082.30
2019-03-04T05:04:32.105Z,95079.34
2019-03-04T05:07:01.776Z,95087.64
2019-03-04T05:09:31.415Z,95083.54
2019-03-04T05:12:01.199Z,95077.59
2019-03-04T05:14:30.832Z,95083.95
2019-03-04T05:17:00.538Z,95080.38
2019-03-04T05:19:30.227Z,95084.97
2019-03-04T05:21:59.942Z,95084.57
2019-03-04T05:24:29.789Z,95087.47
2019-03-04T05:26:59.468Z,95081.29
2019-03-04T05:29:29.195Z,95087.16
2019-03-04T05:31:58.810Z,95089.50
2019-03-04T05:34:28.504Z,95087.47
2019-03-04T05:36:58.216Z,95090.30
2019-03-04T05:39:27.916Z,95099.97
2019-03-04T05:41:57.555Z,95096.06
2019-03-04T05:44:27.288Z,95098.55
2019-03-04T05:46:56.872Z,95098.02
2019-03-04T05:49:26.611Z,95101.31
2019-03-04T05:51:56.285Z,95096.30
2019-03-04T05:54:25.900Z,95104.82
2019-03-04T05:56:55.592Z,95102.45
2019-03-04T05:59:25.228Z,95109.83
2019-03-04T06:02:03.828Z,95108.50
2019-03-04T06:04:33.538Z,95112.08
2019-03-04T06:07:06.720Z,95117.84
2019-03-04T06:09:36.356Z,95121.13
2019-03-04T06:12:06.000Z,95123.17
2019-03-04T06:14:35.748Z,95120.31
2019-03-04T06:17:05.572Z,95127.05
2019-03-04T06:19:35.283Z,95124.51
2019-03-04T06:22:04.984Z,95124.83
2019-03-04T06:24:34.706Z,95125.00
2019-03-04T06:27:04.454Z,95131.80
2019-03-04T06:29:34.125Z,95139.81
2019-03-04T06:32:03.755Z,95142.67
2019-03-04T06:34:33.443Z,95143.59
2019-03-04T06:37:03.086Z,95139.49
2019-03-04T06:39:32.752Z,95146.48
2019-03-04T06:42:02.401Z,95152.86
2019-03-04T06:44:32.078Z,95153.67
2019-03-04T06:47:01.826Z,95152.44
2019-03-04T06:49:31.426Z,95151.19
2019-03-04T06:52:01.106Z,95153.97
2019-03-04T06:54:44.958Z,95153.77
2019-03-04T06:57:28.263Z,95161.04
2019-03-04T07:00:28.617Z,95155.11
2019-03-04T07:02:59.292Z,95155.41
2019-03-04T07:05:45.940Z,95154.89
2019-03-04T07:09:12.299Z,95151.81
2019-03-04T07:11:46.001Z,95160.45
2019-03-04T07:14:15.744Z,95164.34
2019-03-04T07:16:46.081Z,95161.56
2019-03-04T07:19:27.248Z,95158.98
2019-03-04T07:21:56.916Z,95156.55
2019-03-04T07:24:26.571Z,95154.07
2019-03-04T07:26:56.248Z,95153.56
2019-03-04T07:29:25.887Z,95158.59
2019-03-04T07:31:55.567Z,95148.13
2019-03-04T07:34:25.199Z,95146.27
2019-03-04T07:36:54.885Z,95150.56
2019-03-04T07:39:24.585Z,95137.94
2019-03-04T07:41:58.812Z,95142.66
2019-03-04T07:44:28.518Z,95137.22
2019-03-04T07:46:58.164Z,95132.80
2019-03-04T07:49:27.845Z,95130.13
2019-03-04T07:51:57.472Z,95130.45
2019-03-04T07:54:27.159Z,95131.06
2019-03-04T07:56:56.793Z,95129.13
2019-03-04T07:59:26.490Z,95126.35
2019-03-04T08:01:56.187Z,95125.12
2019-03-04T08:04:25.826Z,95127.16
2019-03-04T08:07:23.560Z,95126.75
2019-03-04T08:10:25.333Z,95125.31
2019-03-04T08:13:07.182Z,95122.84
2019-03-04T08:15:45.654Z,95117.61
2019-03-04T08:18:15.278Z,95124.17
2019-03-04T08:20:44.964Z,95118.02
2019-03-04T08:23:14.592Z,95111.35
2019-03-04T08:25:44.282Z,95110.93
2019-03-04T08:28:15.492Z,95110.91
2019-03-04T08:30:45.230Z,95108.27
2019-03-04T08:33:14.880Z,95107.32
2019-03-04T08:35:44.551Z,95104.62
2019-03-04T08:38:14.304Z,95106.87
2019-03-04T08:40:43.906Z,95101.76
2019-03-04T08:43:13.583Z,95098.47
2019-03-04T08:45:43.229Z,95095.89
2019-03-04T08:48:12.913Z,95097.20
2019-03-04T08:50:43.533Z,95092.48
2019-03-04T08:53:13.175Z,95093.29
2019-03-04T08:55:45.222Z,95093.33
2019-03-04T08:58:14.219Z,95091.70
2019-03-04T09:00:43.935Z,95088.38
2019-03-04T09:03:13.881Z,95085.41
2019-03-04T09:05:43.541Z,95085.11
2019-03-04T09:08:13.291Z,95081.80
2019-03-04T09:10:42.885Z,95079.22
2019-03-04T09:13:12.576Z,95075.60
2019-03-04T09:15:42.192Z,95069.35
2019-03-04T09:18:11.896Z,95080.66
2019-03-04T09:20:41.530Z,95078.08
2019-03-04T09:23:11.209Z,95076.31
2019-03-04T09:25:50.809Z,95073.64
2019-03-04T09:28:20.466Z,95077.61
2019-03-04T09:30:50.086Z,95071.26
2019-03-04T09:33:19.787Z,95067.84
2019-03-04T09:35:49.606Z,95053.56
2019-03-04T09:38:19.307Z,95056.00
2019-03-04T09:40:49.020Z,95050.45
2019-03-04T09:43:18.633Z,95049.70
2019-03-04T09:45:49.698Z,95049.59
2019-03-04T09:48:19.294Z,95044.36
2019-03-04T09:50:49.028Z,95041.58
2019-03-04T09:53:18.792Z,95041.16
2019-03-04T09:55:48.562Z,95030.98
2019-03-04T09:58:18.236Z,95029.42
2019-03-04T10:00:54.650Z,95026.75
2019-03-04T10:04:11.827Z,95020.06
2019-03-04T10:07:34.835Z,95022.34
2019-03-04T10:10:57.122Z,95016.70
2019-03-04T10:13:55.098Z,95011.23
2019-03-04T10:16:38.634Z,95004.97
2019-03-04T10:20:16.753Z,95002.19
2019-03-04T10:23:15.635Z,94995.19
2019-03-04T10:26:22.159Z,94984.00
2019-03-04T10:29:17.521Z,94991.70
2019-03-04T10:32:24.009Z,94988.91
2019-03-04T10:35:49.623Z,94977.17
2019-03-04T10:38:33.978Z,94972.79
2019-03-04T10:41:22.623Z,94973.98
2019-03-04T10:44:21.223Z,94967.62
2019-03-04T10:46:52.508Z,94962.27
2019-03-04T10:49:22.195Z,94947.63
2019-03-04T10:51:51.821Z,94944.91
2019-03-04T10:54:21.496Z,94938.80
2019-03-04T10:56:51.204Z,94927.38
2019-03-04T10:59:21.069Z,94926.86
2019-03-04T11:01:50.740Z,94926.58
2019-03-04T11:04:20.448Z,94916.25
2019-03-04T11:06:50.151Z,94909.95
2019-03-04T11:09:19.782Z,94913.95
2019-03-04T11:11:49.574Z,94910.79
2019-03-04T11:14:19.214Z,94900.91
2019-03-04T11:16:48.893Z,94901.11
2019-03-04T11:19:18.534Z,94896.58
2019-03-04T11:21:48.224Z,94888.64
2019-03-04T11:24:17.837Z,94876.62
2019-03-04T11:26:47.528Z,94878.19
2019-03-04T11:29:17.249Z,94872.48
2019-03-04T11:31:46.876Z,94863.13
2019-03-04T11:34:16.562Z,94861.79
2019-03-04T11:36:46.195Z,94853.01
2019-03-04T11:40:02.876Z,94850.66
2019-03-04T11:42:32.674Z,94843.20
2019-03-04T11:45:02.339Z,94832.96
2019-03-04T11:47:32.014Z,94833.04
2019-03-04T11:50:01.660Z,94825.02
2019-03-04T11:52:31.334Z,94819.02
2019-03-04T11:55:01.057Z,94818.13
2019-03-04T11:57:30.756Z,94816.43
2019-03-04T12:00:00.499Z,94812.34
2019-03-04T12:02:38.879Z,94805.64
2019-03-04T12:05:03.391Z,94796.14
2019-03-04T12:07:33.127Z,94790.48
2019-03-04T12:10:02.796Z,94792.84
2019-03-04T12:12:32.514Z,94782.09
2019-03-04T12:15:02.229Z,94786.25
2019-03-04T12:17:31.886Z,94779.51
2019-03-04T12:20:01.537Z,94765.70
2019-03-04T12:22:31.168Z,94770.15
2019-03-04T12:25:00.867Z,94764.36
2019-03-04T12:27:30.495Z,94760.04
2019-03-04T12:30:00.340Z,94761.20
2019-03-04T12:32:33.360Z,94753.12
2019-03-04T12:35:03.105Z,94750.45
2019-03-04T12:37:32.724Z,94750.06
2019-03-04T12:40:02.398Z,94747.48
2019-03-04T12:42:32.108Z,94736.85
2019-03-04T12:45:01.931Z,94726.22
2019-03-04T12:47:31.564Z,94734.74
2019-03-04T12:50:01.319Z,94726.67
2019-03-04T12:52:31.053Z,94726.89
2019-03-04T12:55:00.701Z,94723.41
2019-03-04T12:57:30.576Z,94720.00
2019-03-04T13:00:00.233Z,94712.42
2019-03-04T13:02:30.106Z,94714.08
2019-03-04T13:05:01.543Z,94704.27
2019-03-04T13:07:31.406Z,94707.57
2019-03-04T13:10:01.058Z,94702.65
2019-03-04T13:12:30.806Z,94707.78
2019-03-04T13:15:00.486Z,94697.83
2019-03-04T13:17:30.209Z,94702.79
2019-03-04T13:20:00.022Z,94685.65
2019-03-04T13:22:29.737Z,94682.09
2019-03-04T13:24:59.453Z,94677.27
2019-03-04T13:27:29.376Z,94675.69
2019-03-04T13:29:58.981Z,94672.38
2019-03-04T13:32:28.683Z,94673.55
2019-03-04T13:34:58.496Z,94672.66
2019-03-04T13:37:28.206Z,94662.70
2019-03-04T13:39:57.920Z,94657.50
2019-03-04T13:42:27.645Z,94652.02
2019-03-04T13:44:57.344Z,94648.88
2019-03-04T13:47:28.531Z,94646.20
2019-03-04T13:49:58.306Z,94652.53
2019-03-04T13:52:27.925Z,94641.73
2019-03-04T13:54:57.621Z,94638.59
2019-03-04T13:57:27.321Z,94639.44
2019-03-04T13:59:56.972Z,94638.73
2019-03-04T14:02:26.648Z,94629.37
2019-03-04T14:04:56.298Z,94623.73
2019-03-04T14:07:25.973Z,94628.50
2019-03-04T14:09:55.715Z,94621.79
2019-03-04T14:12:25.543Z,94616.05
2019-03-04T14:14:55.123Z,94618.32
2019-03-04T14:17:24.985Z,94613.37
2019-03-04T14:19:54.845Z,94605.41
2019-03-04T14:22:24.544Z,94605.34
2019-03-04T14:24:54.255Z,94595.98
2019-03-04T14:27:23.875Z,94592.91
2019-03-04T14:29:53.679Z,94593.03
2019-03-04T14:32:23.407Z,94586.72
2019-03-04T14:34:53.110Z,94585.47
2019-03-04T14:37:22.724Z,94581.75
2019-03-04T14:39:52.478Z,94585.16
2019-03-04T14:42:22.142Z,94580.00
2019-03-04T14:44:51.748Z,94578.84
2019-03-04T14:47:21.460Z,94575.02
2019-03-04T14:49:51.187Z,94577.69
2019-03-04T14:52:20.904Z,94580.98
2019-03-04T14:54:50.318Z,94576.91
2019-03-04T14:57:19.787Z,94579.49
2019-03-04T14:59:49.413Z,94581.11
2019-03-04T15:02:19.101Z,94581.98
2019-03-04T15:04:48.810Z,94582.39
2019-03-04T15:07:18.524Z,94579.09
2019-03-04T15:09:49.520Z,94581.30
2019-03-04T15:12:19.486Z,94574.89
2019-03-04T15:14:49.115Z,94581.23
2019-03-04T15:17:31.415Z,94574.08
2019-03-04T15:20:08.992Z,94570.94
2019-03-04T15:22:35.190Z,94566.58
2019-03-04T15:25:03.901Z,94563.06
2019-03-04T15:27:33.610Z,94562.04
2019-03-04T15:30:03.333Z,94564.66
2019-03-04T15:32:33.029Z,94553.95
2019-03-04T15:35:02.663Z,94552.77
2019-03-04T15:37:33.632Z,94544.92
2019-03-04T15:40:03.446Z,94548.59
2019-03-04T15:42:33.104Z,94551.48
2019-03-04T15:45:02.894Z,94551.67
2019-03-04T15:47:32.547Z,94550.34
2019-03-04T15:50:02.271Z,94547.94
2019-03-04T15:52:32.268Z,94544.52
2019-03-04T15:55:02.078Z,94547.46
2019-03-04T15:57:31.784Z,94544.39
2019-03-04T16:00:01.497Z,94534.88
2019-03-04T16:02:31.205Z,94539.58
2019-03-04T16:05:00.914Z,94533.10
2019-03-04T16:07:30.633Z,94535.50
2019-03-04T16:10:00.395Z,94543.53
2019-03-04T16:12:31.632Z,94533.29
2019-03-04T16:15:01.295Z,94540.11
2019-03-04T16:17:31.007Z,94549.94
2019-03-04T16:20:00.716Z,94542.59
2019-03-04T16:22:30.430Z,94544.12
2019-03-04T16:25:00.067Z,94548.53
2019-03-04T16:27:29.787Z,94548.00
2019-03-04T16:29:59.457Z,94550.46
2019-03-04T16:32:29.073Z,94553.95
2019-03-04T16:34:58.899Z,94549.41
2019-03-04T16:37:28.505Z,94550.11
2019-03-04T16:39:58.252Z,94555.16
2019-03-04T16:42:27.817Z,94554.59
2019-03-04T16:44:57.525Z,94549.24
2019-03-04T16:47:27.194Z,94551.95
2019-03-04T16:49:56.751Z,94545.67
2019-03-04T16:52:29.200Z,94541.38
2019-03-04T16:54:58.917Z,94546.56
2019-03-04T16:57:28.656Z,94535.08
2019-03-04T16:59:58.350Z,94545.56
2019-03-04T17:02:28.050Z,94541.22
2019-03-04T17:04:57.737Z,94540.16
2019-03-04T17:07:27.469Z,94538.88
2019-03-04T17:09:57.129Z,94536.42
2019-03-04T17:12:26.790Z,94540.83
2019-03-04T17:14:56.448Z,94533.92
2019-03-04T17:17:26.109Z,94541.02
2019-03-04T17:19:55.829Z,94546.77
2019-03-04T17:22:25.322Z,94538.47
2019-03-04T17:24:55.056Z,94543.98
2019-03-04T17:27:24.666Z,94539.09
2019-03-04T17:29:54.370Z,94546.91
2019-03-04T17:32:24.064Z,94543.01
2019-03-04T17:34:53.707Z,94540.27
2019-03-04T17:37:23.402Z,94553.74
2019-03-04T17:39:53.121Z,94544.56
2019-03-04T17:42:22.818Z,94544.03
2019-03-04T17:44:52.535Z,94545.51
2019-03-04T17:47:22.235Z,94548.36
2019-03-04T17:49:51.959Z,94542.83
2019-03-04T17:52:21.576Z,94547.84
2019-03-04T17:54:51.273Z,94543.77
2019-03-04T17:57:21.009Z,94543.30
2019-03-04T17:59:50.686Z,94542.13
2019-03-04T18:02:20.194Z,94546.45
2019-03-04T18:04:49.826Z,94552.67
2019-03-04T18:07:19.617Z,94549.13
2019-03-04T18:09:49.257Z,94550.33
2019-03-04T18:12:18.942Z,94551.95
2019-03-04T18:14:48.652Z,94551.48
2019-03-04T18:17:18.430Z,94564.24
2019-03-04T18:19:48.150Z,94579.37
2019-03-04T18:22:17.766Z,94580.58
2019-03-04T18:24:47.644Z,94574.30
2019-03-04T18:27:41.377Z,94575.98
2019-03-04T18:30:23.261Z,94572.50
2019-03-04T18:33:18.217Z,94575.48
2019-03-04T18:36:28.834Z,94573.55
2019-03-04T18:39:44.851Z,94577.56
2019-03-04T18:42:52.478Z,94583.95
2019-03-04T18:45:58.750Z,94586.06
2019-03-04T18:49:02.522Z,94587.67
2019-03-04T18:51:33.374Z,94594.09
2019-03-04T18:54:09.111Z,94599.44
2019-03-04T18:56:38.831Z,94591.10
2019-03-04T18:59:08.427Z,94591.69
2019-03-04T19:01:38.166Z,94583.95
2019-03-04T19:04:07.957Z,94585.00
2019-03-04T19:06:37.771Z,94589.61
2019-03-04T19:09:08.988Z,94593.75
2019-03-04T19:11:39.008Z,94582.33
2019-03-04T19:14:08.767Z,94584.41
2019-03-04T19:16:38.403Z,94587.09
2019-03-04T19:19:08.202Z,94590.36
2019-03-04T19:21:37.781Z,94595.11
2019-03-04T19:24:07.221Z,94588.95
2019-03-04T19:26:37.037Z,94586.81
2019-03-04T19:29:06.787Z,94583.32
2019-03-04T19:31:36.677Z,94581.17
2019-03-04T19:34:06.523Z,94580.05
2019-03-04T19:36:36.240Z,94580.05
2019-03-04T19:39:07.494Z,94582.52
2019-03-04T19:41:37.242Z,94579.37
2019-03-04T19:44:06.826Z,94574.70
2019-03-04T19:46:36.676Z,94577.44
2019-03-04T19:49:06.454Z,94579.19
2019-03-04T19:51:36.155Z,94581.11
2019-03-04T19:54:05.793Z,94578.03
2019-03-04T19:56:35.461Z,94571.09
2019-03-04T19:59:05.147Z,94569.76
2019-03-04T20:01:35.004Z,94571.63
2019-03-04T20:04:04.609Z,94578.38
2019-03-04T20:06:34.217Z,94570.22
2019-03-04T20:09:04.564Z,94573.02
2019-03-04T20:11:34.239Z,94573.02
2019-03-04T20:14:03.940Z,94576.63
2019-03-04T20:16:33.591Z,94565.34
2019-03-04T20:19:03.486Z,94566.67
2019-03-04T20:21:33.101Z,94573.61
2019-03-04T20:24:02.792Z,94571.92
2019-03-04T20:26:32.422Z,94564.56
2019-03-04T20:29:02.125Z,94572.27
2019-03-04T20:31:31.735Z,94577.56
2019-03-04T20:34:01.468Z,94578.91
2019-03-04T20:36:31.142Z,94579.93
2019-03-04T20:39:00.960Z,94581.86
2019-03-04T20:41:30.656Z,94582.20
2019-03-04T20:44:00.308Z,94577.72
2019-03-04T20:46:30.021Z,94573.70
2019-03-04T20:48:59.598Z,94590.13
2019-03-04T20:51:29.296Z,94596.29
2019-03-04T20:53:58.941Z,94588.66
2019-03-04T20:56:28.618Z,94587.89
2019-03-04T20:58:58.334Z,94585.74
2019-03-04T21:01:28.113Z,94589.69
2019-03-04T21:03:57.926Z,94587.61
2019-03-04T21:06:27.672Z,94581.92
2019-03-04T21:08:57.381Z,94583.05
2019-03-04T21:11:27.101Z,94584.41
2019-03-04T21:13:56.814Z,94578.97
2019-03-04T21:16:26.429Z,94588.55
2019-03-04T21:18:56.131Z,94573.83
2019-03-04T21:21:25.741Z,94576.51
2019-03-04T21:23:55.439Z,94576.82
2019-03-04T21:26:27.670Z,94567.20
2019-03-04T21:29:56.620Z,94569.41
2019-03-04T21:32:34.610Z,94569.60
2019-03-04T21:35:48.675Z,94564.53
2019-03-04T21:38:18.318Z,94561.33
2019-03-04T21:41:16.256Z,94562.04
2019-03-04T21:44:23.846Z,94561.47
2019-03-04T21:47:15.805Z,94571.80
2019-03-04T21:49:48.408Z,94579.52
2019-03-04T21:52:54.647Z,94576.38
2019-03-04T21:55:31.704Z,94579.36
2019-03-04T21:58:01.447Z,94590.88
2019-03-04T22:00:41.313Z,94591.16
2019-03-04T22:03:29.319Z,94587.61
2019-03-04T22:05:59.470Z,94596.44
2019-03-04T22:08:29.131Z,94585.39
2019-03-04T22:10:59.529Z,94581.20
2019-03-04T22:13:29.178Z,94594.02
2019-03-04T22:15:58.850Z,94595.88
2019-03-04T22:18:28.548Z,94587.08
2019-03-04T22:20:58.330Z,94580.70
2019-03-04T22:23:28.022Z,94590.81
2019-03-04T22:26:01.808Z,94586.27
2019-03-04T22:28:29.191Z,94583.13
2019-03-04T22:30:58.896Z,94573.48
2019-03-04T22:33:28.636Z,94577.72
2019-03-04T22:35:58.430Z,94588.41
2019-03-04T22:38:28.124Z,94585.55
2019-03-04T22:40:57.860Z,94589.34
2019-03-04T22:43:27.350Z,94588.72
2019-03-04T22:45:57.074Z,94588.22
2019-03-04T22:48:26.709Z,94599.23
2019-03-04T22:50:56.416Z,94596.18
2019-03-04T22:53:26.014Z,94598.33
2019-03-04T22:55:56.035Z,94603.40
2019-03-04T22:58:28.954Z,94596.99
2019-03-04T23:01:36.111Z,94605.92
2019-03-04T23:04:14.658Z,94613.95
2019-03-04T23:06:48.884Z,94606.63
2019-03-04T23:09:19.031Z,94604.73
2019-03-04T23:11:53.257Z,94603.89
2019-03-04T23:14:26.808Z,94600.27
2019-03-04T23:16:56.388Z,94601.28
2019-03-04T23:19:25.998Z,94591.39
2019-03-04T23:21:55.684Z,94602.80
2019-03-04T23:24:25.389Z,94599.47
2019-03-04T23:26:55.028Z,94598.66
2019-03-04T23:29:24.567Z,94599.01
2019-03-04T23:31:54.350Z,94600.88
2019-03-04T23:34:23.962Z,94606.16
2019-03-04T23:36:53.644Z,94606.96
2019-03-04T23:39:23.462Z,94607.20
2019-03-04T23:41:53.167Z,94602.84
2019-03-04T23:44:22.883Z,94607.08
2019-03-04T23:46:52.602Z,94603.66
2019-03-04T23:49:22.289Z,94607.14
2019-03-04T23:51:51.927Z,94603.28
2019-03-04T23:54:21.608Z,94609.09
2019-03-04T23:56:51.247Z,94616.55
2019-03-04T23:59:20.931Z,94621.95
